createdAt,value
2022-12-20T00:01:52.981Z,27.90
2022-12-20T00:04:21.073Z,28.77
2022-12-20T00:06:48.917Z,26.15
2022-12-20T00:09:16.921Z,26.67
2022-12-20T00:11:44.598Z,32.10
2022-12-20T00:14:12.673Z,31.67
2022-12-20T00:16:40.328Z,30.73
2022-12-20T00:19:10.806Z,29.25
2022-12-20T00:21:38.754Z,25.52
2022-12-20T00:24:07.412Z,29.90
2022-12-20T00:26:36.393Z,28.38
2022-12-20T00:29:06.459Z,32.53
2022-12-20T00:31:35.396Z,29.92
2022-12-20T00:34:03.590Z,24.40
2022-12-20T00:36:33.156Z,25.10
2022-12-20T00:39:02.253Z,26.02
2022-12-20T00:41:33.922Z,30.85
2022-12-20T00:44:03.021Z,27.80
2022-12-20T00:46:32.055Z,26.65
2022-12-20T00:49:00.741Z,29.05
2022-12-20T00:51:31.290Z,27.08
2022-12-20T00:53:59.310Z,31.98
2022-12-20T00:56:27.058Z,29.08
2022-12-20T00:58:59.913Z,25.67
2022-12-20T01:01:32.011Z,26.77
2022-12-20T01:04:00.804Z,29.80
2022-12-20T01:06:30.033Z,29.52
2022-12-20T01:08:59.256Z,22.40
2022-12-20T01:11:34.255Z,26.02
2022-12-20T01:14:18.286Z,25.83
2022-12-20T01:16:48.270Z,24.63
2022-12-20T01:19:18.440Z,25.85
2022-12-20T01:21:46.574Z,21.52
2022-12-20T01:24:18.294Z,26.90
2022-12-20T01:26:46.918Z,26.25
2022-12-20T01:29:15.595Z,24.27
2022-12-20T01:31:44.249Z,23.50
2022-12-20T01:34:12.661Z,20.48
2022-12-20T01:36:40.985Z,15.70
2022-12-20T01:39:14.575Z,19.50
2022-12-20T01:41:45.413Z,18.08
2022-12-20T01:44:19.399Z,21.95
2022-12-20T01:46:49.958Z,19.60
2022-12-20T01:49:30.712Z,25.15
2022-12-20T01:52:08.669Z,22.80
2022-12-20T01:55:00.540Z,21.77
2022-12-20T01:57:49.670Z,20.42
2022-12-20T02:02:49.410Z,19.27
2022-12-20T02:05:21.297Z,19.50
2022-12-20T02:07:54.345Z,20.02
2022-12-20T02:10:30.166Z,20.20
2022-12-20T02:13:11.007Z,20.83
2022-12-20T02:15:58.952Z,23.02
2022-12-20T02:19:00.359Z,25.05
2022-12-20T02:21:50.853Z,24.45
2022-12-20T02:24:58.910Z,24.58
2022-12-20T02:27:41.259Z,22.65
2022-12-20T02:30:12.355Z,21.30
2022-12-20T02:32:56.612Z,23.33
2022-12-20T02:35:32.208Z,21.80
2022-12-20T02:38:35.235Z,19.05
2022-12-20T02:41:08.163Z,21.10
2022-12-20T02:44:00.527Z,23.08
2022-12-20T02:46:29.444Z,21.77
2022-12-20T02:49:03.105Z,21.60
2022-12-20T02:51:32.677Z,22.40
2022-12-20T02:54:01.799Z,21.73
2022-12-20T02:56:45.723Z,20.00
2022-12-20T02:59:50.652Z,23.10
2022-12-20T03:02:19.321Z,23.60
2022-12-20T03:04:49.999Z,21.48
2022-12-20T03:07:17.838Z,23.35
2022-12-20T03:09:46.053Z,23.58
2022-12-20T03:14:44.618Z,20.25
2022-12-20T03:17:15.169Z,20.77
2022-12-20T03:19:43.358Z,18.02
2022-12-20T03:22:11.705Z,21.92
2022-12-20T03:24:39.704Z,21.45
2022-12-20T03:27:12.259Z,22.92
2022-12-20T03:29:40.428Z,23.33
2022-12-20T03:32:08.526Z,22.35
2022-12-20T03:34:36.562Z,18.15
2022-12-20T03:37:04.675Z,18.48
2022-12-20T03:39:32.722Z,21.33
2022-12-20T03:42:00.973Z,23.35
2022-12-20T03:44:28.947Z,18.42
2022-12-20T03:46:56.679Z,21.48
2022-12-20T03:49:24.547Z,22.33
2022-12-20T03:51:53.105Z,19.67
2022-12-20T03:54:21.283Z,19.58
2022-12-20T03:57:21.280Z,19.77
2022-12-20T03:59:52.012Z,20.33
2022-12-20T04:02:21.852Z,19.20
2022-12-20T04:04:50.873Z,23.95
2022-12-20T04:07:18.705Z,20.67
2022-12-20T04:09:48.435Z,25.65
2022-12-20T04:12:16.919Z,25.83
2022-12-20T04:14:45.465Z,22.45
2022-12-20T04:17:14.142Z,17.88
2022-12-20T04:19:42.900Z,23.88
2022-12-20T04:22:10.619Z,24.70
2022-12-20T04:24:50.866Z,19.88
2022-12-20T04:27:32.381Z,22.50
2022-12-20T04:30:01.526Z,21.33
2022-12-20T04:32:29.915Z,21.38
2022-12-20T04:34:58.304Z,20.27
2022-12-20T04:37:25.908Z,25.40
2022-12-20T04:39:56.458Z,22.15
2022-12-20T04:42:27.526Z,22.42
2022-12-20T04:44:56.650Z,22.90
2022-12-20T04:47:27.739Z,21.65
2022-12-20T04:49:56.437Z,18.85
2022-12-20T04:52:47.694Z,23.10
2022-12-20T04:55:17.333Z,18.52
2022-12-20T04:57:45.553Z,17.47
2022-12-20T05:00:15.892Z,22.40
2022-12-20T05:02:47.474Z,19.85
2022-12-20T05:05:18.904Z,25.17
2022-12-20T05:07:51.884Z,22.75
2022-12-20T05:10:20.168Z,19.63
2022-12-20T05:12:49.340Z,22.92
2022-12-20T05:15:27.443Z,20.83
2022-12-20T05:17:59.564Z,19.90
2022-12-20T05:20:34.235Z,22.05
2022-12-20T05:23:21.969Z,20.80
2022-12-20T05:26:12.766Z,19.45
2022-12-20T05:28:41.166Z,23.42
2022-12-20T05:31:09.445Z,17.85
2022-12-20T05:33:37.597Z,23.85
2022-12-20T05:36:06.830Z,27.45
2022-12-20T05:38:34.434Z,26.90
2022-12-20T05:41:05.023Z,23.92
2022-12-20T05:43:33.916Z,21.90
2022-12-20T05:46:01.940Z,24.00
2022-12-20T05:48:38.350Z,20.17
2022-12-20T05:51:06.483Z,22.30
2022-12-20T05:53:41.041Z,23.65
2022-12-20T05:56:09.325Z,20.85
2022-12-20T05:58:40.374Z,22.45
2022-12-20T06:01:10.678Z,23.92
2022-12-20T06:03:40.773Z,25.65
2022-12-20T06:06:15.600Z,27.00
2022-12-20T06:08:46.225Z,19.55
2022-12-20T06:11:35.250Z,20.48
2022-12-20T06:14:09.415Z,22.13
2022-12-20T06:16:41.862Z,23.80
2022-12-20T06:19:16.027Z,21.75
2022-12-20T06:21:47.802Z,23.80
2022-12-20T06:24:18.719Z,23.30
2022-12-20T06:26:47.482Z,18.55
2022-12-20T06:29:17.596Z,25.17
2022-12-20T06:31:52.014Z,27.70
2022-12-20T06:34:20.620Z,26.83
2022-12-20T06:36:48.717Z,25.85
2022-12-20T06:39:23.546Z,23.63
2022-12-20T06:42:05.992Z,24.50
2022-12-20T06:44:35.973Z,16.48
2022-12-20T06:47:04.561Z,14.93
2022-12-20T06:49:32.487Z,23.48
2022-12-20T06:52:00.601Z,20.63
2022-12-20T06:54:43.590Z,19.80
2022-12-20T06:57:12.076Z,20.60
2022-12-20T06:59:41.022Z,20.27
2022-12-20T07:02:12.027Z,19.65
2022-12-20T07:04:40.070Z,19.80
2022-12-20T07:07:08.183Z,20.38
2022-12-20T07:09:35.784Z,22.13
2022-12-20T07:12:03.864Z,20.88
2022-12-20T07:14:31.388Z,19.50
2022-12-20T07:16:59.518Z,23.13
2022-12-20T07:19:27.162Z,19.17
2022-12-20T07:21:55.279Z,21.98
2022-12-20T07:24:23.410Z,18.88
2022-12-20T07:26:51.302Z,20.38
2022-12-20T07:29:18.917Z,21.08
2022-12-20T07:33:03.273Z,19.80
2022-12-20T07:35:31.002Z,18.75
2022-12-20T07:37:58.967Z,24.40
2022-12-20T07:40:26.557Z,23.67
2022-12-20T07:42:54.494Z,23.02
2022-12-20T07:45:22.230Z,25.23
2022-12-20T07:47:50.159Z,23.02
2022-12-20T07:50:17.891Z,22.42
2022-12-20T07:52:47.153Z,20.77
2022-12-20T07:55:15.582Z,23.88
2022-12-20T07:57:52.947Z,18.42
2022-12-20T08:00:21.018Z,18.42
2022-12-20T08:03:01.791Z,23.23
2022-12-20T08:05:53.269Z,19.95
2022-12-20T08:08:22.224Z,28.08
2022-12-20T08:10:50.843Z,24.30
2022-12-20T08:13:19.319Z,26.20
2022-12-20T08:15:47.095Z,19.70
2022-12-20T08:18:16.277Z,21.88
2022-12-20T08:20:43.878Z,22.15
2022-12-20T08:23:12.298Z,17.80
2022-12-20T08:25:42.109Z,22.42
2022-12-20T08:28:10.590Z,22.85
2022-12-20T08:30:38.532Z,22.45
2022-12-20T08:33:06.827Z,22.75
2022-12-20T08:35:34.522Z,17.52
2022-12-20T08:38:02.502Z,19.27
2022-12-20T08:40:30.086Z,18.60
2022-12-20T08:43:01.377Z,20.55
2022-12-20T08:45:32.868Z,18.42
2022-12-20T08:48:01.034Z,25.45
2022-12-20T08:50:29.517Z,21.75
2022-12-20T08:52:57.651Z,20.60
2022-12-20T08:55:29.557Z,22.63
2022-12-20T08:57:57.702Z,20.60
2022-12-20T09:00:25.583Z,21.45
2022-12-20T09:02:55.551Z,23.88
2022-12-20T09:05:23.454Z,23.65
2022-12-20T09:07:51.245Z,22.35
2022-12-20T09:10:18.927Z,23.70
2022-12-20T09:12:46.801Z,23.33
2022-12-20T09:15:15.414Z,18.17
2022-12-20T09:17:43.248Z,20.52
2022-12-20T09:20:10.967Z,20.02
2022-12-20T09:22:38.782Z,20.10
2022-12-20T09:25:07.225Z,22.08
2022-12-20T09:27:35.109Z,19.98
2022-12-20T09:30:03.302Z,20.77
2022-12-20T09:32:31.215Z,18.65
2022-12-20T09:34:58.760Z,20.23
2022-12-20T09:37:32.313Z,20.38
2022-12-20T09:40:00.104Z,19.58
2022-12-20T09:42:30.192Z,18.25
2022-12-20T09:45:08.570Z,18.33
2022-12-20T09:47:39.202Z,21.30
2022-12-20T09:50:14.893Z,20.92
2022-12-20T09:52:51.920Z,23.40
2022-12-20T09:55:43.492Z,21.08
2022-12-20T09:58:38.976Z,24.40
2022-12-20T10:01:25.385Z,19.48
2022-12-20T10:03:56.403Z,23.60
2022-12-20T10:09:50.312Z,19.92
2022-12-20T10:13:14.294Z,18.25
2022-12-20T10:15:52.590Z,23.52
2022-12-20T10:18:35.500Z,20.48
2022-12-20T10:21:31.995Z,20.20
2022-12-20T10:24:05.361Z,24.70
2022-12-20T10:26:34.426Z,17.02
2022-12-20T10:29:02.112Z,23.52
2022-12-20T10:31:30.400Z,19.38
2022-12-20T10:33:58.183Z,23.13
2022-12-20T10:36:27.061Z,20.52
2022-12-20T10:39:04.862Z,23.08
2022-12-20T10:41:45.353Z,20.52
2022-12-20T10:44:26.445Z,19.70
2022-12-20T10:47:00.990Z,22.95
2022-12-20T10:49:41.193Z,20.60
2022-12-20T10:52:11.580Z,23.42
2022-12-20T10:54:45.312Z,18.80
2022-12-20T10:57:33.668Z,21.38
2022-12-20T11:00:09.224Z,20.92
2022-12-20T11:02:42.475Z,18.95
2022-12-20T11:05:10.710Z,22.65
2022-12-20T11:08:33.531Z,21.50
2022-12-20T11:10:44.132Z,19.98
2022-12-20T11:13:26.636Z,24.13
2022-12-20T11:15:57.739Z,24.13
2022-12-20T11:18:37.649Z,24.42
2022-12-20T11:21:28.485Z,20.38
2022-12-20T11:24:29.052Z,20.80
2022-12-20T11:27:15.916Z,17.20
2022-12-20T11:30:05.118Z,17.80
2022-12-20T11:33:22.949Z,20.88
2022-12-20T11:36:02.642Z,18.42
2022-12-20T11:38:58.993Z,19.35
2022-12-20T11:41:58.699Z,22.83
2022-12-20T11:48:05.806Z,21.48
2022-12-20T11:51:26.313Z,22.40
2022-12-20T11:54:06.715Z,22.33
2022-12-20T11:56:44.689Z,22.60
2022-12-20T11:59:50.636Z,28.65
2022-12-20T12:02:54.725Z,27.70
2022-12-20T12:05:39.940Z,23.23
2022-12-20T12:08:32.001Z,26.67
2022-12-20T12:12:03.988Z,30.25
2022-12-20T12:14:15.967Z,38.53
2022-12-20T12:16:51.633Z,74.40
2022-12-20T12:19:19.321Z,62.78
2022-12-20T12:22:01.657Z,47.65
2022-12-20T12:24:39.307Z,48.17
2022-12-20T12:27:24.923Z,49.42
2022-12-20T12:29:56.450Z,42.55
2022-12-20T12:32:43.969Z,49.55
2022-12-20T12:35:47.464Z,56.55
2022-12-20T12:39:14.190Z,46.40
2022-12-20T12:42:01.201Z,46.20
2022-12-20T12:44:47.082Z,53.30
2022-12-20T12:47:36.643Z,35.47
2022-12-20T12:50:10.195Z,56.80
2022-12-20T12:52:46.315Z,40.08
2022-12-20T12:55:38.516Z,36.83
2022-12-20T12:58:24.224Z,36.47
2022-12-20T13:00:55.739Z,42.80
2022-12-20T13:03:52.115Z,37.33
2022-12-20T13:06:26.286Z,42.40
2022-12-20T13:08:59.560Z,36.92
2022-12-20T13:11:33.647Z,30.73
2022-12-20T13:14:24.758Z,22.88
2022-12-20T13:22:25.646Z,26.67
2022-12-20T13:24:57.013Z,23.33
2022-12-20T13:27:39.142Z,23.40
2022-12-20T13:30:14.545Z,22.85
2022-12-20T13:32:48.579Z,29.33
2022-12-20T13:35:25.078Z,37.80
2022-12-20T13:37:55.601Z,37.17
2022-12-20T13:40:47.930Z,36.65
2022-12-20T13:43:24.446Z,37.10
2022-12-20T13:45:56.207Z,31.23
2022-12-20T13:48:49.054Z,47.83
2022-12-20T13:51:25.923Z,44.75
2022-12-20T13:54:01.871Z,32.90
2022-12-20T13:56:33.709Z,31.10
2022-12-20T13:59:22.627Z,26.67
2022-12-20T14:01:57.817Z,29.42
2022-12-20T14:04:45.049Z,47.33
2022-12-20T14:07:18.604Z,31.85
2022-12-20T14:09:54.747Z,29.13
2022-12-20T14:12:27.543Z,29.50
2022-12-20T14:14:59.631Z,29.30
2022-12-20T14:17:32.422Z,26.45
2022-12-20T14:20:51.562Z,27.63
2022-12-20T14:23:25.192Z,28.40
2022-12-20T14:25:59.401Z,27.75
2022-12-20T14:28:46.180Z,22.05
2022-12-20T14:31:32.273Z,26.02
2022-12-20T14:34:13.526Z,30.92
2022-12-20T14:36:49.341Z,37.83
2022-12-20T14:39:34.277Z,30.58
2022-12-20T14:42:12.604Z,30.52
2022-12-20T14:44:40.551Z,27.90
2022-12-20T14:47:25.144Z,33.08
2022-12-20T14:50:00.642Z,33.85
2022-12-20T14:52:48.830Z,31.33
2022-12-20T14:55:39.712Z,29.17
2022-12-20T14:58:34.164Z,37.05
2022-12-20T15:01:27.237Z,34.65
2022-12-20T15:04:00.504Z,42.17
2022-12-20T15:06:55.196Z,40.80
2022-12-20T15:09:23.464Z,29.40
2022-12-20T15:11:52.246Z,30.48
2022-12-20T15:14:39.377Z,33.40
2022-12-20T15:17:17.176Z,32.45
2022-12-20T15:19:45.335Z,31.40
2022-12-20T15:22:20.333Z,30.10
2022-12-20T15:24:48.397Z,28.80
2022-12-20T15:27:16.491Z,30.80
2022-12-20T15:29:44.419Z,31.48
2022-12-20T15:32:29.858Z,28.92
2022-12-20T15:34:57.963Z,33.15
2022-12-20T15:37:25.634Z,29.88
2022-12-20T15:39:53.463Z,25.58
2022-12-20T15:42:23.009Z,31.23
2022-12-20T15:44:51.182Z,26.52
2022-12-20T15:47:18.734Z,27.55
2022-12-20T15:49:50.372Z,30.40
2022-12-20T15:52:24.393Z,30.48
2022-12-20T15:54:52.734Z,36.88
2022-12-20T15:57:21.217Z,34.97
2022-12-20T16:00:01.074Z,32.05
2022-12-20T16:02:39.465Z,24.38
2022-12-20T16:05:14.018Z,38.28
2022-12-20T16:07:41.799Z,35.47
2022-12-20T16:10:14.581Z,27.83
2022-12-20T16:12:42.676Z,34.25
2022-12-20T16:15:23.104Z,31.67
2022-12-20T16:17:51.196Z,33.65
2022-12-20T16:20:19.864Z,23.65
2022-12-20T16:22:48.125Z,26.50
2022-12-20T16:25:33.638Z,39.33
2022-12-20T16:28:02.606Z,33.70
2022-12-20T16:30:30.877Z,28.92
2022-12-20T16:32:59.709Z,33.95
2022-12-20T16:35:36.444Z,34.88
2022-12-20T16:38:05.856Z,29.20
2022-12-20T16:40:35.119Z,26.73
2022-12-20T16:43:02.728Z,31.50
2022-12-20T16:45:32.101Z,24.08
2022-12-20T16:47:59.949Z,30.45
2022-12-20T16:50:28.148Z,27.75
2022-12-20T16:52:56.587Z,27.30
2022-12-20T16:55:27.404Z,32.28
2022-12-20T16:57:55.202Z,30.10
2022-12-20T17:00:27.208Z,30.67
2022-12-20T17:02:55.377Z,30.95
2022-12-20T17:05:33.483Z,26.83
2022-12-20T17:08:01.472Z,28.20
2022-12-20T17:10:30.769Z,34.00
2022-12-20T17:12:58.812Z,31.75
2022-12-20T17:15:31.839Z,38.70
2022-12-20T17:17:59.457Z,37.17
2022-12-20T17:20:30.093Z,42.55
2022-12-20T17:25:53.868Z,38.63
2022-12-20T17:28:22.201Z,40.03
2022-12-20T17:30:50.654Z,41.15
2022-12-20T17:33:18.266Z,43.72
2022-12-20T17:35:46.294Z,44.00
2022-12-20T17:38:14.028Z,54.15
2022-12-20T17:40:42.018Z,48.38
2022-12-20T17:43:12.514Z,56.63
2022-12-20T17:45:41.297Z,43.50
2022-12-20T17:48:08.994Z,37.40
2022-12-20T17:50:37.230Z,36.53
2022-12-20T17:53:05.428Z,35.83
2022-12-20T17:55:33.717Z,36.42
2022-12-20T17:58:01.649Z,35.13
2022-12-20T18:00:38.791Z,35.90
2022-12-20T18:03:07.731Z,31.52
2022-12-20T18:05:39.822Z,42.27
2022-12-20T18:08:12.832Z,40.50
2022-12-20T18:10:40.739Z,39.70
2022-12-20T18:13:08.630Z,33.75
2022-12-20T18:15:39.007Z,59.50
2022-12-20T18:18:06.747Z,49.83
2022-12-20T18:20:34.582Z,37.90
2022-12-20T18:23:02.245Z,43.53
2022-12-20T18:25:30.603Z,46.88
2022-12-20T18:27:58.261Z,29.45
2022-12-20T18:30:26.322Z,33.70
2022-12-20T18:32:54.031Z,32.65
2022-12-20T18:35:22.125Z,29.85
2022-12-20T18:37:50.220Z,32.60
2022-12-20T18:40:18.747Z,24.83
2022-12-20T18:42:46.490Z,26.30
2022-12-20T18:45:14.862Z,30.58
2022-12-20T18:47:42.478Z,35.13
2022-12-20T18:50:13.341Z,32.60
2022-12-20T18:52:43.239Z,28.77
2022-12-20T18:55:15.669Z,34.80
2022-12-20T18:57:43.419Z,35.15
2022-12-20T19:00:12.791Z,34.33
2022-12-20T19:02:41.503Z,29.75
2022-12-20T19:05:09.929Z,28.35
2022-12-20T19:07:37.594Z,31.30
2022-12-20T19:10:06.202Z,28.17
2022-12-20T19:12:34.874Z,33.03
2022-12-20T19:15:02.958Z,26.67
2022-12-20T19:17:30.461Z,23.75
2022-12-20T19:19:58.353Z,32.72
2022-12-20T19:22:26.145Z,27.65
2022-12-20T19:24:55.730Z,37.08
2022-12-20T19:27:23.739Z,28.67
2022-12-20T19:29:52.996Z,35.85
2022-12-20T19:32:20.586Z,25.67
2022-12-20T19:34:48.434Z,30.75
2022-12-20T19:37:16.205Z,29.15
2022-12-20T19:39:44.165Z,34.28
2022-12-20T19:42:27.089Z,35.15
2022-12-20T19:44:55.020Z,34.55
2022-12-20T19:47:23.627Z,26.77
2022-12-20T19:49:51.528Z,32.17
2022-12-20T19:52:28.877Z,33.92
2022-12-20T19:54:57.353Z,33.03
2022-12-20T19:57:25.055Z,32.28
2022-12-20T19:59:56.186Z,31.40
2022-12-20T20:02:25.126Z,29.35
2022-12-20T20:04:53.370Z,31.38
2022-12-20T20:07:21.189Z,36.30
2022-12-20T20:09:49.042Z,30.45
2022-12-20T20:12:16.691Z,27.33
2022-12-20T20:14:44.659Z,30.17
2022-12-20T20:17:12.271Z,28.08
2022-12-20T20:19:40.769Z,29.92
2022-12-20T20:22:10.738Z,30.52
2022-12-20T20:24:38.710Z,27.67
2022-12-20T20:27:06.425Z,29.95
2022-12-20T20:29:34.400Z,28.45
2022-12-20T20:32:03.349Z,30.35
2022-12-20T20:34:31.320Z,34.42
2022-12-20T20:36:59.130Z,30.95
2022-12-20T20:39:27.159Z,32.53
2022-12-20T20:41:54.716Z,32.75
2022-12-20T20:44:22.662Z,33.53
2022-12-20T20:46:50.219Z,37.85
2022-12-20T20:49:19.830Z,34.10
2022-12-20T20:51:47.423Z,32.80
2022-12-20T20:54:15.465Z,32.92
2022-12-20T20:56:43.155Z,35.88
2022-12-20T20:59:17.301Z,30.23
2022-12-20T21:01:45.735Z,33.15
2022-12-20T21:04:13.718Z,36.15
2022-12-20T21:06:42.275Z,33.97
2022-12-20T21:09:11.554Z,41.03
2022-12-20T21:11:39.557Z,34.83
2022-12-20T21:14:08.245Z,31.33
2022-12-20T21:16:36.971Z,34.78
2022-12-20T21:19:05.908Z,34.00
2022-12-20T21:21:33.645Z,35.08
2022-12-20T21:24:01.942Z,33.40
2022-12-20T21:26:29.865Z,35.38
2022-12-20T21:28:59.917Z,41.63
2022-12-20T21:31:28.228Z,40.40
2022-12-20T21:33:57.718Z,30.50
2022-12-20T21:36:25.682Z,41.38
2022-12-20T21:38:56.937Z,35.58
2022-12-20T21:41:28.869Z,39.63
2022-12-20T21:44:01.221Z,35.22
2022-12-20T21:46:32.099Z,36.17
2022-12-20T21:49:00.845Z,39.25
2022-12-20T21:51:30.677Z,40.90
2022-12-20T21:54:00.980Z,39.75
2022-12-20T21:56:32.742Z,39.10
2022-12-20T21:59:02.551Z,41.80
2022-12-20T22:01:31.813Z,46.30
2022-12-20T22:04:05.952Z,34.38
2022-12-20T22:06:36.433Z,40.47
2022-12-20T22:09:07.484Z,38.78
2022-12-20T22:11:35.767Z,36.70
2022-12-20T22:14:03.822Z,41.47
2022-12-20T22:16:32.448Z,37.63
2022-12-20T22:19:01.679Z,39.88
2022-12-20T22:21:32.357Z,33.40
2022-12-20T22:24:03.106Z,36.40
2022-12-20T22:26:33.781Z,37.58
2022-12-20T22:29:06.072Z,37.40
2022-12-20T22:31:35.045Z,38.33
2022-12-20T22:36:31.754Z,36.95
2022-12-20T22:38:59.750Z,33.10
2022-12-20T22:41:30.857Z,37.58
2022-12-20T22:43:59.851Z,39.15
2022-12-20T22:49:18.470Z,41.40
2022-12-20T22:51:59.148Z,42.38
2022-12-20T22:54:30.637Z,39.35
2022-12-20T22:56:58.219Z,40.60
2022-12-20T22:59:26.477Z,42.35
2022-12-20T23:01:54.167Z,41.03
2022-12-20T23:04:22.363Z,38.85
2022-12-20T23:06:50.009Z,39.38
2022-12-20T23:09:17.978Z,40.40
2022-12-20T23:12:04.555Z,34.15
2022-12-20T23:14:51.064Z,38.85
2022-12-20T23:17:18.648Z,40.63
2022-12-20T23:20:05.292Z,37.17
2022-12-20T23:22:39.447Z,39.70
2022-12-20T23:25:14.645Z,31.92
2022-12-20T23:27:44.454Z,39.60
2022-12-20T23:30:17.280Z,39.15
2022-12-20T23:32:45.244Z,35.08
2022-12-20T23:35:16.745Z,36.22
2022-12-20T23:37:46.054Z,39.33
2022-12-20T23:42:44.976Z,40.05
2022-12-20T23:45:13.319Z,33.25
2022-12-20T23:47:41.053Z,32.25
2022-12-20T23:50:09.471Z,43.28
2022-12-20T23:52:37.018Z,36.30
2022-12-20T23:55:05.916Z,33.50
2022-12-20T23:57:33.540Z,33.30
